createdAt,value
2018-10-21T00:00:04.788Z,0.00
2018-10-21T00:01:04.805Z,0.00
2018-10-21T00:02:04.621Z,0.00
2018-10-21T00:03:04.571Z,0.00
2018-10-21T00:04:04.454Z,0.00
2018-10-21T00:05:04.372Z,0.00
2018-10-21T00:06:04.286Z,0.00
2018-10-21T00:07:04.203Z,0.00
2018-10-21T00:08:04.120Z,0.00
2018-10-21T00:09:04.091Z,0.00
2018-10-21T00:10:03.957Z,0.00
2018-10-21T00:11:03.870Z,0.00
2018-10-21T00:12:03.785Z,0.00
2018-10-21T00:13:03.804Z,0.00
2018-10-21T00:14:03.618Z,0.00
2018-10-21T00:15:03.586Z,0.00
2018-10-21T00:16:03.451Z,0.00
2018-10-21T00:17:03.367Z,0.00
2018-10-21T00:18:03.286Z,0.00
2018-10-21T00:19:03.202Z,0.00
2018-10-21T00:20:03.118Z,0.00
2018-10-21T00:21:03.137Z,0.00
2018-10-21T00:22:02.951Z,0.00
2018-10-21T00:23:02.866Z,0.00
2018-10-21T00:24:02.784Z,0.00
2018-10-21T00:25:02.705Z,0.00
2018-10-21T00:26:02.615Z,0.00
2018-10-21T00:27:02.553Z,0.00
2018-10-21T00:28:02.500Z,0.00
2018-10-21T00:29:02.364Z,0.00
2018-10-21T00:30:02.280Z,0.00
2018-10-21T00:31:02.198Z,0.00
2018-10-21T00:32:02.114Z,0.00
2018-10-21T00:33:02.104Z,0.00
2018-10-21T00:34:01.946Z,0.00
2018-10-21T00:35:01.861Z,0.00
2018-10-21T00:36:01.779Z,0.00
2018-10-21T00:37:01.695Z,0.00
2018-10-21T00:38:01.611Z,0.00
2018-10-21T00:39:01.633Z,0.00
2018-10-21T00:40:01.449Z,0.00
2018-10-21T00:41:01.360Z,0.00
2018-10-21T00:42:01.275Z,0.00
2018-10-21T00:43:01.192Z,0.00
2018-10-21T00:44:01.108Z,0.00
2018-10-21T00:45:01.149Z,0.00
2018-10-21T00:46:00.939Z,0.00
2018-10-21T00:47:00.857Z,0.00
2018-10-21T00:48:00.773Z,0.00
2018-10-21T00:49:00.690Z,0.00
2018-10-21T00:50:00.708Z,0.00
2018-10-21T00:51:00.554Z,0.00
2018-10-21T00:52:00.439Z,0.00
2018-10-21T00:53:00.355Z,0.00
2018-10-21T00:54:00.311Z,0.00
2018-10-21T00:55:00.210Z,0.00
2018-10-21T00:56:00.105Z,0.00
2018-10-21T00:57:00.039Z,0.00
2018-10-21T00:57:59.938Z,0.00
2018-10-21T00:58:59.852Z,0.00
2018-10-21T00:59:59.768Z,0.00
2018-10-21T01:00:59.736Z,0.00
2018-10-21T01:01:59.600Z,0.00
2018-10-21T01:02:59.576Z,0.00
2018-10-21T01:03:59.473Z,0.00
2018-10-21T01:04:59.348Z,0.00
2018-10-21T01:05:59.265Z,0.00
2018-10-21T01:06:59.182Z,0.00
2018-10-21T01:07:59.096Z,0.00
2018-10-21T01:08:59.033Z,0.00
2018-10-21T01:09:58.929Z,0.00
2018-10-21T01:10:58.847Z,0.00
2018-10-21T01:11:58.763Z,0.00
2018-10-21T01:12:58.678Z,0.00
2018-10-21T01:13:58.601Z,0.00
2018-10-21T01:14:58.525Z,0.00
2018-10-21T01:15:58.427Z,0.00
2018-10-21T01:16:58.342Z,0.00
2018-10-21T01:17:58.258Z,0.00
2018-10-21T01:18:58.175Z,0.00
2018-10-21T01:19:58.090Z,0.00
2018-10-21T01:20:58.026Z,0.00
2018-10-21T01:21:57.922Z,0.00
2018-10-21T01:22:57.843Z,0.00
2018-10-21T01:23:57.754Z,0.00
2018-10-21T01:24:57.671Z,0.00
2018-10-21T01:25:57.586Z,0.00
2018-10-21T01:26:57.618Z,0.00
2018-10-21T01:27:57.418Z,0.00
2018-10-21T01:28:57.337Z,0.00
2018-10-21T01:29:57.251Z,0.00
2018-10-21T01:30:57.166Z,0.00
2018-10-21T01:31:57.082Z,0.00
2018-10-21T01:32:57.028Z,0.00
2018-10-21T01:33:56.913Z,0.00
2018-10-21T01:34:56.830Z,0.00
2018-10-21T01:35:56.746Z,0.00
2018-10-21T01:36:56.715Z,0.00
2018-10-21T01:37:56.715Z,0.00
2018-10-21T01:38:56.526Z,0.00
2018-10-21T01:39:56.410Z,0.00
2018-10-21T01:40:56.327Z,0.00
2018-10-21T01:41:56.244Z,0.00
2018-10-21T01:42:56.157Z,0.00
2018-10-21T01:43:56.073Z,0.00
2018-10-21T01:44:56.045Z,0.00
2018-10-21T01:45:55.906Z,0.00
2018-10-21T01:46:55.821Z,0.00
2018-10-21T01:47:55.738Z,0.00
2018-10-21T01:48:55.654Z,0.00
2018-10-21T01:49:55.568Z,0.00
2018-10-21T01:50:55.496Z,0.00
2018-10-21T01:51:55.400Z,0.00
2018-10-21T01:52:55.321Z,0.00
2018-10-21T01:53:55.232Z,0.00
2018-10-21T01:54:55.149Z,0.00
2018-10-21T01:55:55.066Z,0.00
2018-10-21T01:56:54.984Z,0.00
2018-10-21T01:57:54.896Z,0.00
2018-10-21T01:58:54.816Z,0.00
2018-10-21T01:59:54.727Z,0.00
2018-10-21T02:00:54.647Z,0.00
2018-10-21T02:01:54.559Z,0.00
2018-10-21T02:02:54.501Z,0.00
2018-10-21T02:03:54.394Z,0.00
2018-10-21T02:04:54.307Z,0.00
2018-10-21T02:05:54.222Z,0.00
2018-10-21T02:06:54.138Z,0.00
2018-10-21T02:07:54.107Z,0.00
2018-10-21T02:08:54.017Z,0.00
2018-10-21T02:09:53.886Z,0.00
2018-10-21T02:10:53.802Z,0.00
2018-10-21T02:11:53.719Z,0.00
2018-10-21T02:12:53.634Z,0.00
2018-10-21T02:13:53.549Z,0.00
2018-10-21T02:14:53.467Z,0.00
2018-10-21T02:15:53.380Z,0.00
2018-10-21T02:16:53.298Z,0.00
2018-10-21T02:17:53.263Z,0.00
2018-10-21T02:18:53.128Z,0.00
2018-10-21T02:19:53.045Z,0.00
2018-10-21T02:20:52.960Z,0.00
2018-10-21T02:21:52.875Z,0.00
2018-10-21T02:22:52.791Z,0.00
2018-10-21T02:23:52.708Z,0.00
2018-10-21T02:24:52.623Z,0.00
2018-10-21T02:25:52.538Z,0.00
2018-10-21T02:26:52.515Z,0.00
2018-10-21T02:27:52.368Z,0.00
2018-10-21T02:28:52.286Z,0.00
2018-10-21T02:29:52.204Z,0.00
2018-10-21T02:30:52.116Z,0.00
2018-10-21T02:31:52.037Z,0.00
2018-10-21T02:32:52.000Z,0.00
2018-10-21T02:33:51.863Z,0.00
2018-10-21T02:34:51.781Z,0.00
2018-10-21T02:35:51.695Z,0.00
2018-10-21T02:36:51.611Z,0.00
2018-10-21T02:37:51.525Z,0.00
2018-10-21T02:38:51.442Z,0.00
2018-10-21T02:39:51.361Z,0.00
2018-10-21T02:40:51.272Z,0.00
2018-10-21T02:41:51.188Z,0.00
2018-10-21T02:42:51.354Z,0.00
2018-10-21T02:43:51.019Z,0.00
2018-10-21T02:44:50.936Z,0.00
2018-10-21T02:45:50.851Z,0.00
2018-10-21T02:46:50.765Z,0.00
2018-10-21T02:47:50.731Z,0.00
2018-10-21T02:48:50.598Z,0.00
2018-10-21T02:49:50.512Z,0.00
2018-10-21T02:50:50.429Z,0.00
2018-10-21T02:51:50.345Z,0.00
2018-10-21T02:52:50.263Z,0.00
2018-10-21T02:53:50.175Z,0.00
2018-10-21T02:54:50.096Z,0.00
2018-10-21T02:55:50.007Z,0.00
2018-10-21T02:56:49.925Z,0.00
2018-10-21T02:57:49.837Z,0.00
2018-10-21T02:58:49.752Z,0.00
2018-10-21T02:59:49.669Z,0.00
2018-10-21T03:00:49.585Z,0.00
2018-10-21T03:01:49.499Z,0.00
2018-10-21T03:02:49.414Z,0.00
2018-10-21T03:03:49.331Z,0.00
2018-10-21T03:04:49.247Z,0.00
2018-10-21T03:05:49.165Z,0.00
2018-10-21T03:06:49.082Z,0.00
2018-10-21T03:07:48.992Z,0.00
2018-10-21T03:08:48.918Z,0.00
2018-10-21T03:09:48.828Z,0.00
2018-10-21T03:10:48.738Z,0.00
2018-10-21T03:11:48.654Z,0.00
2018-10-21T03:12:48.570Z,0.00
2018-10-21T03:13:48.496Z,0.00
2018-10-21T03:14:48.403Z,0.00
2018-10-21T03:15:48.315Z,0.00
2018-10-21T03:16:48.233Z,0.00
2018-10-21T03:17:48.149Z,0.00
2018-10-21T03:18:48.317Z,0.00
2018-10-21T03:19:47.979Z,0.00
2018-10-21T03:20:47.894Z,0.00
2018-10-21T03:21:47.815Z,0.00
2018-10-21T03:22:47.729Z,0.00
2018-10-21T03:23:47.639Z,0.00
2018-10-21T03:24:47.555Z,0.00
2018-10-21T03:25:47.470Z,0.00
2018-10-21T03:26:47.386Z,0.00
2018-10-21T03:27:47.301Z,0.00
2018-10-21T03:28:47.320Z,0.00
2018-10-21T03:29:47.134Z,0.00
2018-10-21T03:30:47.049Z,0.00
2018-10-21T03:31:46.965Z,0.00
2018-10-21T03:32:46.901Z,0.00
2018-10-21T03:33:46.866Z,0.00
2018-10-21T03:34:46.716Z,0.00
2018-10-21T03:35:46.629Z,0.00
2018-10-21T03:36:46.542Z,0.00
2018-10-21T03:37:46.458Z,0.00
2018-10-21T03:38:46.373Z,0.00
2018-10-21T03:39:46.289Z,0.00
2018-10-21T03:40:46.205Z,0.00
2018-10-21T03:41:46.120Z,0.00
2018-10-21T03:42:46.035Z,0.00
2018-10-21T03:43:45.951Z,0.00
2018-10-21T03:44:45.916Z,0.00
2018-10-21T03:45:45.781Z,0.00
2018-10-21T03:46:45.698Z,0.00
2018-10-21T03:47:45.613Z,0.00
2018-10-21T03:48:45.529Z,0.00
2018-10-21T03:49:45.693Z,0.00
2018-10-21T03:50:45.358Z,0.00
2018-10-21T03:51:45.276Z,0.00
2018-10-21T03:52:45.191Z,0.00
2018-10-21T03:53:45.106Z,0.00
2018-10-21T03:54:45.021Z,0.00
2018-10-21T03:55:44.936Z,0.00
2018-10-21T03:56:44.853Z,0.00
2018-10-21T03:57:44.767Z,0.00
2018-10-21T03:58:44.682Z,0.00
2018-10-21T03:59:44.598Z,0.00
2018-10-21T04:00:44.514Z,0.00
2018-10-21T04:01:44.428Z,0.00
2018-10-21T04:02:44.345Z,0.00
2018-10-21T04:03:44.261Z,0.00
2018-10-21T04:04:44.176Z,0.00
2018-10-21T04:05:44.190Z,0.00
2018-10-21T04:06:44.007Z,0.00
2018-10-21T04:07:43.922Z,0.00
2018-10-21T04:08:43.837Z,0.00
2018-10-21T04:09:43.752Z,0.00
2018-10-21T04:10:43.667Z,0.00
2018-10-21T04:11:43.684Z,0.00
2018-10-21T04:12:43.499Z,0.00
2018-10-21T04:13:43.415Z,0.00
2018-10-21T04:14:43.329Z,0.00
2018-10-21T04:15:43.244Z,0.00
2018-10-21T04:16:43.160Z,0.00
2018-10-21T04:17:43.076Z,0.00
2018-10-21T04:18:42.991Z,0.00
2018-10-21T04:19:42.907Z,0.00
2018-10-21T04:20:42.824Z,0.00
2018-10-21T04:21:42.737Z,0.00
2018-10-21T04:22:42.654Z,0.00
2018-10-21T04:23:42.568Z,0.00
2018-10-21T04:24:42.484Z,0.00
2018-10-21T04:25:42.403Z,0.00
2018-10-21T04:26:42.315Z,0.00
2018-10-21T04:27:42.330Z,0.00
2018-10-21T04:28:42.146Z,0.00
2018-10-21T04:29:42.064Z,0.00
2018-10-21T04:30:41.976Z,0.00
2018-10-21T04:31:41.892Z,0.00
2018-10-21T04:32:41.807Z,0.00
2018-10-21T04:33:41.722Z,0.00
2018-10-21T04:34:41.638Z,0.00
2018-10-21T04:35:41.554Z,0.00
2018-10-21T04:36:41.470Z,0.00
2018-10-21T04:37:41.384Z,0.00
2018-10-21T04:38:41.300Z,0.00
2018-10-21T04:39:41.215Z,0.00
2018-10-21T04:40:41.130Z,0.00
2018-10-21T04:41:41.046Z,0.00
2018-10-21T04:42:40.961Z,0.00
2018-10-21T04:43:40.877Z,0.00
2018-10-21T04:44:40.790Z,0.00
2018-10-21T04:45:40.706Z,0.00
2018-10-21T04:46:40.785Z,0.00
2018-10-21T04:47:40.538Z,0.00
2018-10-21T04:48:40.456Z,0.00
2018-10-21T04:49:40.367Z,0.00
2018-10-21T04:50:40.282Z,0.00
2018-10-21T04:51:40.197Z,0.00
2018-10-21T04:52:40.115Z,0.00
2018-10-21T04:53:40.029Z,0.00
2018-10-21T04:54:39.944Z,0.00
2018-10-21T04:55:39.909Z,0.00
2018-10-21T04:56:39.775Z,0.00
2018-10-21T04:57:39.689Z,0.00
2018-10-21T04:58:39.603Z,0.00
2018-10-21T04:59:39.518Z,0.00
2018-10-21T05:00:39.498Z,0.00
2018-10-21T05:01:39.347Z,0.00
2018-10-21T05:02:39.264Z,0.00
2018-10-21T05:03:39.180Z,0.00
2018-10-21T05:04:39.095Z,0.00
2018-10-21T05:05:39.011Z,0.00
2018-10-21T05:06:38.924Z,0.00
2018-10-21T05:07:38.938Z,0.00
2018-10-21T05:08:38.759Z,0.00
2018-10-21T05:09:38.670Z,0.00
2018-10-21T05:10:38.585Z,0.00
2018-10-21T05:11:38.504Z,0.00
2018-10-21T05:12:38.415Z,0.00
2018-10-21T05:13:38.334Z,0.00
2018-10-21T05:14:38.244Z,0.00
2018-10-21T05:15:38.163Z,0.00
2018-10-21T05:16:38.111Z,0.00
2018-10-21T05:17:37.989Z,0.00
2018-10-21T05:18:37.910Z,0.00
2018-10-21T05:19:37.824Z,0.00
2018-10-21T05:20:37.736Z,0.00
2018-10-21T05:21:37.650Z,0.00
2018-10-21T05:22:37.565Z,0.00
2018-10-21T05:23:37.482Z,0.00
2018-10-21T05:24:37.398Z,0.00
2018-10-21T05:25:37.310Z,0.00
2018-10-21T05:26:37.224Z,0.00
2018-10-21T05:27:37.140Z,4.00
2018-10-21T05:28:37.055Z,4.00
2018-10-21T05:29:36.970Z,0.00
2018-10-21T05:30:36.885Z,4.00
2018-10-21T05:31:36.801Z,4.00
2018-10-21T05:32:36.715Z,4.00
2018-10-21T05:33:36.630Z,4.00
2018-10-21T05:34:36.545Z,4.00
2018-10-21T05:35:36.464Z,8.00
2018-10-21T05:36:36.478Z,8.00
2018-10-21T05:37:36.291Z,12.00
2018-10-21T05:38:36.206Z,16.00
2018-10-21T05:39:36.120Z,16.00
2018-10-21T05:40:36.065Z,16.00
2018-10-21T05:41:36.050Z,24.00
2018-10-21T05:42:35.865Z,28.00
2018-10-21T05:43:35.781Z,32.00
2018-10-21T05:44:35.700Z,36.00
2018-10-21T05:45:35.611Z,40.00
2018-10-21T05:46:35.576Z,52.00
2018-10-21T05:47:35.441Z,52.00
2018-10-21T05:48:35.361Z,64.00
2018-10-21T05:49:35.275Z,72.00
2018-10-21T05:50:35.186Z,80.00
2018-10-21T05:51:35.351Z,88.00
2018-10-21T05:52:35.017Z,100.00
2018-10-21T05:53:34.932Z,108.00
2018-10-21T05:54:34.848Z,120.00
2018-10-21T05:55:34.762Z,136.00
2018-10-21T05:56:34.677Z,148.00
2018-10-21T05:57:34.596Z,160.00
2018-10-21T05:58:34.508Z,176.00
2018-10-21T05:59:34.422Z,196.00
2018-10-21T06:00:34.337Z,212.00
2018-10-21T06:01:34.252Z,232.00
2018-10-21T06:02:34.169Z,248.00
2018-10-21T06:03:34.083Z,264.00
2018-10-21T06:04:34.000Z,280.00
2018-10-21T06:05:33.912Z,296.00
2018-10-21T06:06:33.830Z,312.00
2018-10-21T06:07:33.743Z,320.00
2018-10-21T06:08:33.660Z,336.00
2018-10-21T06:09:33.575Z,352.00
2018-10-21T06:10:33.489Z,364.00
2018-10-21T06:11:33.404Z,380.00
2018-10-21T06:12:33.319Z,400.00
2018-10-21T06:13:33.236Z,412.00
2018-10-21T06:14:33.150Z,420.00
2018-10-21T06:15:33.065Z,432.00
2018-10-21T06:16:32.981Z,444.00
2018-10-21T06:17:32.895Z,460.00
2018-10-21T06:18:32.810Z,468.00
2018-10-21T06:19:32.727Z,472.00
2018-10-21T06:20:32.642Z,476.00
2018-10-21T06:21:32.556Z,480.00
2018-10-21T06:22:32.472Z,488.00
2018-10-21T06:23:32.450Z,496.00
2018-10-21T06:24:32.307Z,504.00
2018-10-21T06:25:32.222Z,512.00
2018-10-21T06:26:32.133Z,524.00
2018-10-21T06:27:32.098Z,536.00
2018-10-21T06:28:31.964Z,544.00
2018-10-21T06:29:31.879Z,556.00
2018-10-21T06:30:31.799Z,564.00
2018-10-21T06:31:31.811Z,568.00
2018-10-21T06:32:31.626Z,580.00
2018-10-21T06:33:31.555Z,588.00
2018-10-21T06:34:31.456Z,592.00
2018-10-21T06:35:31.371Z,596.00
2018-10-21T06:36:31.306Z,596.00
2018-10-21T06:37:31.202Z,600.00
2018-10-21T06:38:31.119Z,620.00
2018-10-21T06:39:31.034Z,636.00
2018-10-21T06:40:30.950Z,656.00
2018-10-21T06:41:30.865Z,704.00
2018-10-21T06:42:30.780Z,708.00
2018-10-21T06:43:30.695Z,740.00
2018-10-21T06:44:30.613Z,792.00
2018-10-21T06:45:30.576Z,808.00
2018-10-21T06:46:30.442Z,840.00
2018-10-21T06:47:30.358Z,880.00
2018-10-21T06:48:30.408Z,880.00
2018-10-21T06:49:30.188Z,884.00
2018-10-21T06:50:30.106Z,884.00
2018-10-21T06:51:30.020Z,888.00
2018-10-21T06:52:29.937Z,908.00
2018-10-21T06:53:29.851Z,932.00
2018-10-21T06:54:29.767Z,948.00
2018-10-21T06:55:29.683Z,972.00
2018-10-21T06:56:29.714Z,992.00
2018-10-21T06:57:29.935Z,1016.00
2018-10-21T06:58:29.430Z,1028.00
2018-10-21T06:59:29.346Z,1040.00
2018-10-21T07:00:29.263Z,1048.00
2018-10-21T07:01:29.177Z,1072.00
2018-10-21T07:02:29.093Z,1096.00
2018-10-21T07:03:29.059Z,1108.00
2018-10-21T07:04:28.972Z,1116.00
2018-10-21T07:05:28.841Z,1124.00
2018-10-21T07:06:28.760Z,1128.00
2018-10-21T07:07:28.674Z,1132.00
2018-10-21T07:08:28.592Z,1136.00
2018-10-21T07:09:28.504Z,1136.00
2018-10-21T07:10:28.420Z,1140.00
2018-10-21T07:11:28.337Z,1140.00
2018-10-21T07:12:28.252Z,1136.00
2018-10-21T07:13:28.318Z,1132.00
2018-10-21T07:14:28.084Z,1128.00
2018-10-21T07:15:28.015Z,1116.00
2018-10-21T07:16:28.065Z,1148.00
2018-10-21T07:17:27.831Z,1164.00
2018-10-21T07:18:27.746Z,1192.00
2018-10-21T07:19:27.664Z,1208.00
2018-10-21T07:20:27.580Z,1228.00
2018-10-21T07:21:27.495Z,1268.00
2018-10-21T07:22:27.411Z,1292.00
2018-10-21T07:23:27.327Z,1304.00
2018-10-21T07:24:27.494Z,1328.00
2018-10-21T07:25:27.164Z,1296.00
2018-10-21T07:26:27.075Z,1300.00
2018-10-21T07:27:26.990Z,1216.00
2018-10-21T07:28:26.951Z,1316.00
2018-10-21T07:29:26.824Z,1408.00
2018-10-21T07:30:26.738Z,1432.00
2018-10-21T07:31:26.655Z,1436.00
2018-10-21T07:32:26.574Z,1428.00
2018-10-21T07:33:26.486Z,1380.00
2018-10-21T07:34:26.402Z,1332.00
2018-10-21T07:35:26.321Z,1396.00
2018-10-21T07:36:26.377Z,1388.00
2018-10-21T07:37:26.151Z,1412.00
2018-10-21T07:38:26.066Z,1404.00
2018-10-21T07:39:25.983Z,1376.00
2018-10-21T07:40:25.900Z,1428.00
2018-10-21T07:41:25.820Z,1412.00
2018-10-21T07:42:25.733Z,1456.00
2018-10-21T07:43:25.648Z,1504.00
2018-10-21T07:44:25.565Z,1552.00
2018-10-21T07:45:25.483Z,1588.00
2018-10-21T07:46:25.402Z,1600.00
2018-10-21T07:47:25.317Z,1416.00
2018-10-21T07:48:25.235Z,1548.00
2018-10-21T07:49:25.147Z,1532.00
2018-10-21T07:50:25.064Z,1632.00
2018-10-21T07:51:24.983Z,1600.00
2018-10-21T07:52:24.898Z,1552.00
2018-10-21T07:53:24.814Z,1544.00
2018-10-21T07:54:24.733Z,1516.00
2018-10-21T07:55:24.753Z,1460.00
2018-10-21T07:56:24.567Z,1524.00
2018-10-21T07:57:24.486Z,1524.00
2018-10-21T07:58:24.402Z,1560.00
2018-10-21T07:59:24.318Z,1596.00
2018-10-21T08:00:24.286Z,1568.00
2018-10-21T08:01:24.202Z,1612.00
2018-10-21T08:02:24.071Z,1556.00
2018-10-21T08:03:23.986Z,1620.00
2018-10-21T08:04:23.904Z,1648.00
2018-10-21T08:05:23.970Z,1672.00
2018-10-21T08:06:23.838Z,1772.00
2018-10-21T08:07:23.656Z,1796.00
2018-10-21T08:08:23.574Z,1820.00
2018-10-21T08:09:23.489Z,1832.00
2018-10-21T08:10:23.408Z,1816.00
2018-10-21T08:11:23.327Z,1796.00
2018-10-21T08:12:23.244Z,1652.00
2018-10-21T08:13:23.161Z,1484.00
2018-10-21T08:14:23.079Z,1600.00
2018-10-21T08:15:22.997Z,1720.00
2018-10-21T08:16:22.919Z,1736.00
2018-10-21T08:17:22.832Z,1744.00
2018-10-21T08:18:22.754Z,1688.00
2018-10-21T08:19:22.669Z,1592.00
2018-10-21T08:20:22.587Z,1524.00
2018-10-21T08:21:22.619Z,1536.00
2018-10-21T08:22:22.424Z,1668.00
2018-10-21T08:23:22.341Z,1724.00
2018-10-21T08:24:22.262Z,1684.00
2018-10-21T08:25:22.178Z,1648.00
2018-10-21T08:26:22.096Z,1636.00
2018-10-21T08:27:22.157Z,1640.00
2018-10-21T08:28:21.934Z,1664.00
2018-10-21T08:29:21.851Z,1664.00
2018-10-21T08:30:21.821Z,1652.00
2018-10-21T08:31:21.689Z,1680.00
2018-10-21T08:32:21.613Z,1664.00
2018-10-21T08:33:21.525Z,1696.00
2018-10-21T08:34:21.444Z,1820.00
2018-10-21T08:35:21.372Z,1748.00
2018-10-21T08:36:21.283Z,1716.00
2018-10-21T08:37:21.201Z,1732.00
2018-10-21T08:38:21.118Z,1772.00
2018-10-21T08:39:21.039Z,1812.00
2018-10-21T08:40:20.960Z,1812.00
2018-10-21T08:41:20.873Z,1852.00
2018-10-21T08:42:20.796Z,1900.00
2018-10-21T08:43:20.713Z,1916.00
2018-10-21T08:44:20.636Z,1940.00
2018-10-21T08:45:20.548Z,1928.00
2018-10-21T08:46:20.618Z,1920.00
2018-10-21T08:47:20.403Z,1932.00
2018-10-21T08:48:20.306Z,2324.00
2018-10-21T08:49:20.420Z,2672.00
2018-10-21T08:50:20.146Z,2252.00
2018-10-21T08:51:20.063Z,2184.00
2018-10-21T08:52:19.981Z,2056.00
2018-10-21T08:53:19.900Z,2004.00
2018-10-21T08:54:19.820Z,1960.00
2018-10-21T08:55:19.747Z,2112.00
2018-10-21T08:56:19.657Z,2092.00
2018-10-21T08:57:19.627Z,2116.00
2018-10-21T08:58:19.497Z,2144.00
2018-10-21T08:59:19.416Z,2148.00
2018-10-21T09:00:19.333Z,2092.00
2018-10-21T09:01:19.289Z,2136.00
2018-10-21T09:02:19.225Z,1988.00
2018-10-21T09:03:19.297Z,2004.00
2018-10-21T09:04:19.107Z,2008.00
2018-10-21T09:05:18.932Z,1976.00
2018-10-21T09:06:18.852Z,2052.00
2018-10-21T09:07:18.959Z,2080.00
2018-10-21T09:08:18.691Z,1912.00
2018-10-21T09:09:18.618Z,1908.00
2018-10-21T09:10:18.676Z,2048.00
2018-10-21T09:11:18.449Z,1992.00
2018-10-21T09:12:18.371Z,2068.00
2018-10-21T09:13:18.437Z,2056.00
2018-10-21T09:14:18.208Z,2028.00
2018-10-21T09:15:18.313Z,2040.00
2018-10-21T09:16:18.182Z,2064.00
2018-10-21T09:17:17.968Z,2112.00
2018-10-21T09:18:17.886Z,2120.00
2018-10-21T09:19:18.105Z,2132.00
2018-10-21T09:20:17.726Z,2136.00
2018-10-21T09:21:17.647Z,2172.00
2018-10-21T09:22:17.642Z,2192.00
2018-10-21T09:23:17.485Z,2172.00
2018-10-21T09:24:17.405Z,2152.00
2018-10-21T09:25:17.569Z,2156.00
2018-10-21T09:26:17.245Z,2144.00
2018-10-21T09:27:17.165Z,2156.00
2018-10-21T09:28:17.171Z,2188.00
2018-10-21T09:29:17.007Z,2192.00
2018-10-21T09:30:16.927Z,2208.00
2018-10-21T09:31:16.960Z,2192.00
2018-10-21T09:32:16.767Z,2200.00
2018-10-21T09:33:16.740Z,2268.00
2018-10-21T09:34:16.733Z,2328.00
2018-10-21T09:35:16.530Z,2488.00
2018-10-21T09:36:16.450Z,2348.00
2018-10-21T09:37:16.492Z,2324.00
2018-10-21T09:38:16.290Z,2304.00
2018-10-21T09:39:16.212Z,2500.00
2018-10-21T09:40:16.213Z,2868.00
2018-10-21T09:41:16.054Z,2524.00
2018-10-21T09:42:16.034Z,2432.00
2018-10-21T09:43:15.948Z,2368.00
2018-10-21T09:44:15.818Z,2372.00
2018-10-21T09:45:15.737Z,2408.00
2018-10-21T09:46:15.703Z,2436.00
2018-10-21T09:47:15.732Z,2440.00
2018-10-21T09:48:15.502Z,2452.00
2018-10-21T09:49:15.553Z,2452.00
2018-10-21T09:50:15.346Z,2452.00
2018-10-21T09:51:15.265Z,2464.00
2018-10-21T09:52:15.220Z,2492.00
2018-10-21T09:53:15.107Z,2528.00
2018-10-21T09:54:15.029Z,2540.00
2018-10-21T09:55:14.990Z,2576.00
2018-10-21T09:56:14.874Z,2532.00
2018-10-21T09:57:14.795Z,2544.00
2018-10-21T09:58:14.787Z,2516.00
2018-10-21T09:59:14.642Z,2536.00
2018-10-21T10:00:14.560Z,2576.00
2018-10-21T10:01:14.611Z,2604.00
2018-10-21T10:02:14.404Z,2568.00
2018-10-21T10:03:14.330Z,2644.00
2018-10-21T10:04:14.372Z,2696.00
2018-10-21T10:05:14.299Z,2652.00
2018-10-21T10:06:14.093Z,2672.00
2018-10-21T10:07:14.162Z,2680.00
2018-10-21T10:09:13.858Z,2784.00
2018-10-21T10:10:13.836Z,2688.00
2018-10-21T10:11:13.705Z,2700.00
2018-10-21T10:12:13.627Z,2748.00
2018-10-21T10:13:13.587Z,4120.00
2018-10-21T10:14:13.470Z,5016.00
2018-10-21T10:15:13.393Z,3116.00
2018-10-21T10:16:13.379Z,2796.00
2018-10-21T10:17:13.237Z,2856.00
2018-10-21T10:18:13.160Z,3032.00
2018-10-21T10:19:13.165Z,3176.00
2018-10-21T10:20:13.010Z,3244.00
2018-10-21T10:21:12.928Z,2952.00
2018-10-21T10:22:12.953Z,3156.00
2018-10-21T10:23:12.837Z,3200.00
2018-10-21T10:24:12.697Z,3316.00
2018-10-21T10:25:12.700Z,3132.00
2018-10-21T10:26:12.542Z,6484.00
2018-10-21T10:27:12.465Z,3576.00
2018-10-21T10:28:12.487Z,4684.00
2018-10-21T10:29:12.312Z,3680.00
2018-10-21T10:30:12.235Z,3276.00
2018-10-21T10:31:12.193Z,3132.00
2018-10-21T10:32:12.083Z,3332.00
2018-10-21T10:33:12.000Z,5260.00
2018-10-21T10:34:12.088Z,7248.00
2018-10-21T10:35:11.848Z,6228.00
2018-10-21T10:36:11.811Z,5812.00
2018-10-21T10:37:11.745Z,8520.00
2018-10-21T10:38:11.618Z,3128.00
2018-10-21T10:39:11.542Z,6904.00
2018-10-21T10:40:11.529Z,6520.00
2018-10-21T10:41:11.388Z,3184.00
2018-10-21T10:42:11.346Z,3928.00
2018-10-21T10:43:11.301Z,3536.00
2018-10-21T10:44:11.261Z,3304.00
2018-10-21T10:45:11.083Z,3452.00
2018-10-21T10:46:11.013Z,3556.00
2018-10-21T10:47:10.932Z,3436.00
2018-10-21T10:48:10.860Z,3456.00
2018-10-21T10:49:10.943Z,3452.00
2018-10-21T10:50:10.704Z,3596.00
2018-10-21T10:51:10.629Z,4136.00
2018-10-21T10:52:10.627Z,4536.00
2018-10-21T10:53:10.592Z,4140.00
2018-10-21T10:54:10.403Z,5620.00
2018-10-21T10:55:10.357Z,4568.00
2018-10-21T10:56:10.251Z,5364.00
2018-10-21T10:57:10.176Z,4320.00
2018-10-21T10:58:10.147Z,4220.00
2018-10-21T10:59:10.022Z,5064.00
2018-10-21T11:00:10.271Z,6276.00
2018-10-21T11:01:09.884Z,9368.00
2018-10-21T11:02:09.796Z,12920.00
2018-10-21T11:03:09.720Z,14996.00
2018-10-21T11:04:09.736Z,15476.00
2018-10-21T11:05:09.569Z,10948.00
2018-10-21T11:06:09.546Z,22400.00
2018-10-21T11:07:09.468Z,44992.00
2018-10-21T11:08:09.343Z,40000.00
2018-10-21T11:09:09.266Z,42240.00
2018-10-21T11:10:09.231Z,30880.00
2018-10-21T11:11:09.116Z,26688.00
2018-10-21T11:12:09.042Z,14244.00
2018-10-21T11:13:09.028Z,6628.00
2018-10-21T11:14:08.897Z,8816.00
2018-10-21T11:15:08.818Z,9108.00
2018-10-21T11:16:08.762Z,13516.00
2018-10-21T11:17:08.670Z,19712.00
2018-10-21T11:18:08.599Z,22688.00
2018-10-21T11:19:08.573Z,18560.00
2018-10-21T11:20:08.449Z,10564.00
2018-10-21T11:21:08.376Z,19648.00
2018-10-21T11:22:08.310Z,19552.00
2018-10-21T11:23:08.235Z,10560.00
2018-10-21T11:24:08.156Z,11524.00
2018-10-21T11:25:08.195Z,13940.00
2018-10-21T11:26:08.010Z,14848.00
2018-10-21T11:27:07.937Z,27808.00
2018-10-21T11:28:07.919Z,47776.00
2018-10-21T11:29:07.789Z,62944.00
2018-10-21T11:30:07.718Z,66112.00
2018-10-21T11:31:07.725Z,62880.00
2018-10-21T11:32:07.570Z,32096.00
2018-10-21T11:33:07.496Z,33472.00
2018-10-21T11:34:07.447Z,25248.00
2018-10-21T11:35:07.353Z,30816.00
2018-10-21T11:36:07.280Z,48384.00
2018-10-21T11:37:07.291Z,36672.00
2018-10-21T11:38:07.134Z,59936.00
2018-10-21T11:39:07.065Z,63488.00
2018-10-21T11:40:07.107Z,65152.00
2018-10-21T11:41:06.920Z,62432.00
2018-10-21T11:42:06.849Z,60032.00
2018-10-21T11:43:06.899Z,57792.00
2018-10-21T11:44:06.709Z,59968.00
2018-10-21T11:45:06.636Z,63072.00
2018-10-21T11:46:06.630Z,64000.00
2018-10-21T11:47:06.498Z,63776.00
2018-10-21T11:48:06.428Z,62944.00
2018-10-21T11:49:06.400Z,58592.00
2018-10-21T11:50:06.295Z,59872.00
2018-10-21T11:51:06.219Z,63392.00
2018-10-21T11:52:06.205Z,60928.00
2018-10-21T11:53:06.081Z,61376.00
2018-10-21T11:54:06.012Z,61568.00
2018-10-21T11:55:05.969Z,63072.00
2018-10-21T11:56:05.877Z,63776.00
2018-10-21T11:57:05.812Z,60992.00
2018-10-21T11:58:05.855Z,60576.00
2018-10-21T11:59:05.671Z,60736.00
2018-10-21T12:00:05.604Z,57664.00
2018-10-21T12:01:05.622Z,58976.00
2018-10-21T12:02:05.467Z,56896.00
2018-10-21T12:03:05.449Z,55840.00
2018-10-21T12:04:05.337Z,55936.00
2018-10-21T12:05:05.271Z,47552.00
2018-10-21T12:06:05.194Z,36768.00
2018-10-21T12:07:05.136Z,31744.00
2018-10-21T12:08:05.064Z,30976.00
2018-10-21T12:09:04.994Z,30336.00
2018-10-21T12:10:04.947Z,29216.00
2018-10-21T12:11:04.859Z,29216.00
2018-10-21T12:12:04.865Z,27360.00
2018-10-21T12:13:04.772Z,23520.00
2018-10-21T12:14:04.653Z,22048.00
2018-10-21T12:15:04.636Z,18944.00
2018-10-21T12:16:04.528Z,17952.00
2018-10-21T12:17:04.453Z,15936.00
2018-10-21T12:18:04.382Z,11732.00
2018-10-21T12:19:04.364Z,9892.00
2018-10-21T12:20:04.370Z,12084.00
2018-10-21T12:21:04.178Z,10908.00
2018-10-21T12:22:04.235Z,8132.00
2018-10-21T12:23:04.093Z,6352.00
2018-10-21T12:24:03.973Z,6072.00
2018-10-21T12:25:03.929Z,5688.00
2018-10-21T12:26:03.836Z,5648.00
2018-10-21T12:27:03.766Z,6156.00
2018-10-21T12:28:03.753Z,6496.00
2018-10-21T12:29:03.707Z,5960.00
2018-10-21T12:30:03.559Z,5680.00
2018-10-21T12:31:03.508Z,5132.00
2018-10-21T12:32:03.415Z,5616.00
2018-10-21T12:33:03.344Z,5244.00
2018-10-21T12:34:03.292Z,7772.00
2018-10-21T12:35:03.212Z,8564.00
2018-10-21T12:36:03.132Z,7088.00
2018-10-21T12:37:03.068Z,5440.00